createdAt,value
2023-03-15T00:00:15.056Z,98962.41
2023-03-15T00:00:29.223Z,98962.41
2023-03-15T00:00:41.570Z,98955.44
2023-03-15T00:00:58.073Z,98954.59
2023-03-15T00:01:14.021Z,98966.09
2023-03-15T00:01:30.700Z,98964.25
2023-03-15T00:01:43.062Z,98963.44
2023-03-15T00:01:56.895Z,98965.25
2023-03-15T00:02:09.770Z,98955.84
2023-03-15T00:02:25.810Z,98954.84
2023-03-15T00:02:40.037Z,98960.97
2023-03-15T00:02:53.253Z,98966.31
2023-03-15T00:03:06.460Z,98955.25
2023-03-15T00:03:22.704Z,98965.50
2023-03-15T00:03:37.748Z,98962.84
2023-03-15T00:03:53.420Z,98954.00
2023-03-15T00:04:07.532Z,98962.00
2023-03-15T00:04:20.506Z,98959.34
2023-03-15T00:04:33.036Z,98983.31
2023-03-15T00:04:45.640Z,98951.56
2023-03-15T00:04:58.458Z,98982.75
2023-03-15T00:05:12.759Z,98962.22
2023-03-15T00:05:25.783Z,98968.38
2023-03-15T00:05:42.172Z,98965.91
2023-03-15T00:06:01.039Z,98967.97
2023-03-15T00:06:15.309Z,98960.81
2023-03-15T00:06:28.653Z,98962.66
2023-03-15T00:06:42.016Z,98965.09
2023-03-15T00:06:57.962Z,98956.28
2023-03-15T00:07:11.098Z,98963.50
2023-03-15T00:07:24.062Z,98964.28
2023-03-15T00:07:36.721Z,98969.63
2023-03-15T00:07:49.070Z,98972.28
2023-03-15T00:08:04.476Z,98963.50
2023-03-15T00:08:17.631Z,98967.97
2023-03-15T00:08:32.208Z,98975.78
2023-03-15T00:08:44.815Z,98979.47
2023-03-15T00:08:59.237Z,98963.50
2023-03-15T00:09:12.640Z,98969.03
2023-03-15T00:09:26.631Z,98959.41
2023-03-15T00:09:40.040Z,98981.53
2023-03-15T00:09:52.970Z,98977.03
2023-03-15T00:10:06.604Z,98969.47
2023-03-15T00:10:21.500Z,98966.38
2023-03-15T00:10:42.438Z,98963.91
2023-03-15T00:10:56.822Z,98971.69
2023-03-15T00:11:10.960Z,98979.69
2023-03-15T00:11:25.698Z,98972.75
2023-03-15T00:11:38.939Z,98975.41
2023-03-15T00:12:00.581Z,98970.88
2023-03-15T00:12:13.430Z,98976.41
2023-03-15T00:12:29.338Z,98969.22
2023-03-15T00:12:41.655Z,98978.28
2023-03-15T00:12:54.640Z,98974.81
2023-03-15T00:13:08.901Z,98976.63
2023-03-15T00:13:30.779Z,98980.94
2023-03-15T00:13:43.477Z,98984.63
2023-03-15T00:13:57.343Z,98980.13
2023-03-15T00:14:12.101Z,98990.78
2023-03-15T00:14:25.987Z,98989.16
2023-03-15T00:14:38.320Z,98986.47
2023-03-15T00:14:53.540Z,98985.66
2023-03-15T00:15:08.220Z,98977.66
2023-03-15T00:15:30.425Z,98976.88
2023-03-15T00:15:51.751Z,98984.84
2023-03-15T00:16:06.045Z,98976.03
2023-03-15T00:16:19.924Z,98980.53
2023-03-15T00:16:35.946Z,98984.84
2023-03-15T00:17:01.428Z,98976.25
2023-03-15T00:17:13.949Z,98975.81
2023-03-15T00:17:38.596Z,98996.34
2023-03-15T00:17:52.236Z,98977.88
2023-03-15T00:18:04.861Z,98989.34
2023-03-15T00:18:19.507Z,98979.53
2023-03-15T00:18:36.093Z,98985.50
2023-03-15T00:18:50.488Z,98982.84
2023-03-15T00:19:11.843Z,98997.59
2023-03-15T00:19:24.098Z,98970.94
2023-03-15T00:19:37.026Z,98983.66
2023-03-15T00:19:57.500Z,98974.59
2023-03-15T00:20:15.149Z,98987.13
2023-03-15T00:20:32.293Z,98994.31
2023-03-15T00:20:45.437Z,98982.84
2023-03-15T00:20:59.080Z,98977.72
2023-03-15T00:21:13.350Z,98987.31
2023-03-15T00:21:25.610Z,98976.66
2023-03-15T00:21:38.609Z,98989.78
2023-03-15T00:21:52.985Z,98982.00
2023-03-15T00:22:06.082Z,98976.66
2023-03-15T00:22:22.941Z,98987.31
2023-03-15T00:22:37.818Z,98990.00
2023-03-15T00:22:52.915Z,98969.91
2023-03-15T00:23:07.847Z,98989.19
2023-03-15T00:23:35.119Z,98982.00
2023-03-15T00:23:47.811Z,98971.34
2023-03-15T00:24:00.799Z,98973.19
2023-03-15T00:24:15.952Z,98975.06
2023-03-15T00:24:34.708Z,98977.72
2023-03-15T00:24:47.394Z,98986.53
2023-03-15T00:24:59.409Z,98990.00
2023-03-15T00:25:17.105Z,98991.84
2023-03-15T00:25:32.457Z,98992.66
2023-03-15T00:25:47.003Z,98993.72
2023-03-15T00:26:06.601Z,98975.50
2023-03-15T00:26:23.252Z,98982.22
2023-03-15T00:26:36.832Z,98987.56
2023-03-15T00:26:50.788Z,98984.09
2023-03-15T00:27:04.184Z,99000.09
2023-03-15T00:27:17.028Z,98976.31
2023-03-15T00:27:34.006Z,98971.97
2023-03-15T00:27:48.037Z,98978.97
2023-03-15T00:28:01.027Z,98969.31
2023-03-15T00:28:14.925Z,98978.16
2023-03-15T00:28:28.637Z,98984.50
2023-03-15T00:28:41.298Z,98983.69
2023-03-15T00:28:55.580Z,98981.03
2023-03-15T00:29:11.046Z,98982.88
2023-03-15T00:29:26.696Z,98975.91
2023-03-15T00:29:43.891Z,98975.69
2023-03-15T00:29:56.825Z,98968.75
2023-03-15T00:30:12.043Z,98974.88
2023-03-15T00:30:28.644Z,98961.75
2023-03-15T00:30:42.783Z,98969.75
2023-03-15T00:31:04.114Z,98980.41
2023-03-15T00:31:18.754Z,98977.56
2023-03-15T00:31:32.039Z,98985.31
2023-03-15T00:31:46.108Z,98963.19
2023-03-15T00:32:00.316Z,98966.66
2023-03-15T00:32:15.509Z,98973.84
2023-03-15T00:32:31.879Z,98972.22
2023-03-15T00:32:45.130Z,98966.06
2023-03-15T00:32:59.134Z,98981.22
2023-03-15T00:33:14.945Z,98960.75
2023-03-15T00:33:27.967Z,98970.81
2023-03-15T00:33:46.736Z,98972.63
2023-03-15T00:34:01.432Z,98964.44
2023-03-15T00:34:14.375Z,98963.41
2023-03-15T00:34:32.307Z,98965.25
2023-03-15T00:34:48.039Z,98963.81
2023-03-15T00:35:00.897Z,98962.56
2023-03-15T00:35:14.520Z,98976.75
2023-03-15T00:35:28.074Z,98957.47
2023-03-15T00:35:45.468Z,98976.94
2023-03-15T00:36:00.512Z,98968.75
2023-03-15T00:36:15.841Z,98972.44
2023-03-15T00:36:30.786Z,98964.63
2023-03-15T00:36:42.939Z,98975.91
2023-03-15T00:37:00.130Z,98967.28
2023-03-15T00:37:13.871Z,98964.06
2023-03-15T00:37:28.397Z,98982.28
2023-03-15T00:37:41.940Z,98965.69
2023-03-15T00:37:57.220Z,98979.59
2023-03-15T00:38:11.399Z,98968.13
2023-03-15T00:38:25.933Z,98974.72
2023-03-15T00:38:41.235Z,98970.81
2023-03-15T00:39:00.299Z,98974.28
2023-03-15T00:39:13.288Z,98967.28
2023-03-15T00:39:59.733Z,98971.00
2023-03-15T00:40:14.067Z,98967.28
2023-03-15T00:40:28.248Z,98955.47
2023-03-15T00:40:40.866Z,98973.69
2023-03-15T00:40:52.984Z,98973.69
2023-03-15T00:41:10.561Z,98980.63
2023-03-15T00:41:23.607Z,98969.38
2023-03-15T00:41:36.016Z,98962.41
2023-03-15T00:41:49.813Z,98969.38
2023-03-15T00:42:05.747Z,98973.06
2023-03-15T00:42:20.872Z,98962.41
2023-03-15T00:42:35.072Z,98965.88
2023-03-15T00:42:48.932Z,98969.59
2023-03-15T00:43:01.131Z,98966.94
2023-03-15T00:43:14.621Z,98969.59
2023-03-15T00:43:27.523Z,98962.63
2023-03-15T00:43:42.060Z,98961.59
2023-03-15T00:43:57.841Z,98966.13
2023-03-15T00:44:11.350Z,98958.13
2023-03-15T00:44:23.642Z,98975.94
2023-03-15T00:44:37.261Z,98973.28
2023-03-15T00:44:51.881Z,98964.47
2023-03-15T00:45:05.933Z,98956.47
2023-03-15T00:45:20.717Z,98959.94
2023-03-15T00:45:33.313Z,98958.13
2023-03-15T00:45:45.442Z,98958.31
2023-03-15T00:45:58.996Z,98967.13
2023-03-15T00:46:12.581Z,98968.97
2023-03-15T00:46:26.720Z,98962.84
2023-03-15T00:46:40.507Z,98961.00
2023-03-15T00:46:54.872Z,98960.19
2023-03-15T00:47:08.903Z,98958.53
2023-03-15T00:47:22.337Z,98941.13
2023-03-15T00:47:36.206Z,98955.88
2023-03-15T00:47:49.522Z,98959.56
2023-03-15T00:48:02.876Z,98953.44
2023-03-15T00:48:18.649Z,98952.59
2023-03-15T00:48:36.301Z,98956.91
2023-03-15T00:48:51.360Z,98952.00
2023-03-15T00:49:04.020Z,98957.31
2023-03-15T00:49:17.399Z,98951.78
2023-03-15T00:49:29.758Z,98954.66
2023-03-15T00:49:44.938Z,98957.13
2023-03-15T00:50:34.781Z,98959.78
2023-03-15T00:50:51.812Z,98954.66
2023-03-15T00:51:07.592Z,98985.00
2023-03-15T00:51:28.888Z,98946.09
2023-03-15T00:51:41.077Z,98965.75
2023-03-15T00:51:56.797Z,98956.94
2023-03-15T00:52:11.008Z,98948.56
2023-03-15T00:52:24.007Z,98967.59
2023-03-15T00:52:36.993Z,98961.47
2023-03-15T00:52:50.057Z,98969.47
2023-03-15T00:53:09.701Z,98949.97
2023-03-15T00:53:26.361Z,98955.31
2023-03-15T00:53:41.956Z,98962.91
2023-03-15T00:53:57.131Z,98947.53
2023-03-15T00:54:11.424Z,98978.47
2023-03-15T00:54:27.849Z,98948.56
2023-03-15T00:54:43.379Z,98965.16
2023-03-15T00:54:58.175Z,98964.53
2023-03-15T00:55:13.452Z,98953.88
2023-03-15T00:55:38.991Z,98962.91
2023-03-15T00:55:56.793Z,98962.91
2023-03-15T00:56:14.350Z,98955.75
2023-03-15T00:56:29.597Z,98945.53
2023-03-15T00:56:44.096Z,98969.25
2023-03-15T00:56:56.015Z,98960.25
2023-03-15T00:57:11.181Z,98955.94
2023-03-15T00:57:23.570Z,98951.66
2023-03-15T00:57:43.323Z,98961.50
2023-03-15T00:57:57.071Z,98948.59
2023-03-15T00:58:14.715Z,98954.31
2023-03-15T00:58:30.795Z,98958.03
2023-03-15T00:58:48.149Z,98967.03
2023-03-15T00:59:02.139Z,98982.00
2023-03-15T00:59:17.641Z,98943.06
2023-03-15T00:59:33.744Z,98957.19
2023-03-15T00:59:48.672Z,98965.41
2023-03-15T01:00:02.559Z,98944.91
2023-03-15T01:00:17.649Z,98950.44
2023-03-15T01:00:33.427Z,98962.75
2023-03-15T01:00:46.060Z,98948.38
2023-03-15T01:00:58.659Z,98953.72
2023-03-15T01:01:13.517Z,98951.25
2023-03-15T01:01:32.588Z,98960.09
2023-03-15T01:01:55.907Z,98947.78
2023-03-15T01:02:11.193Z,98939.78
2023-03-15T01:02:23.947Z,98940.84
2023-03-15T01:02:44.433Z,98947.19
2023-03-15T01:02:58.881Z,98965.81
2023-03-15T01:03:15.855Z,98967.69
2023-03-15T01:03:29.205Z,98981.00
2023-03-15T01:03:44.813Z,98951.69
2023-03-15T01:04:07.875Z,98958.66
2023-03-15T01:04:22.783Z,98954.56
2023-03-15T01:04:38.890Z,98958.06
2023-03-15T01:04:54.960Z,98967.88
2023-03-15T01:05:14.243Z,98948.41
2023-03-15T01:05:29.966Z,98951.28
2023-03-15T01:05:46.249Z,98953.94
2023-03-15T01:05:58.998Z,98973.22
2023-03-15T01:06:18.705Z,98979.56
2023-03-15T01:06:32.742Z,98949.47
2023-03-15T01:06:45.529Z,98958.47
2023-03-15T01:06:59.954Z,98948.63
2023-03-15T01:07:14.849Z,98956.63
2023-03-15T01:07:27.213Z,98958.47
2023-03-15T01:07:43.345Z,98946.19
2023-03-15T01:07:56.309Z,98948.84
2023-03-15T01:08:19.839Z,98948.84
2023-03-15T01:08:32.085Z,98942.72
2023-03-15T01:08:45.587Z,98950.72
2023-03-15T01:09:03.315Z,98945.38
2023-03-15T01:09:17.293Z,98951.53
2023-03-15T01:09:32.722Z,98955.44
2023-03-15T01:09:47.379Z,98965.84
2023-03-15T01:10:03.420Z,98952.78
2023-03-15T01:10:17.209Z,98944.78
2023-03-15T01:10:29.924Z,98952.78
2023-03-15T01:10:50.023Z,98951.94
2023-03-15T01:11:04.191Z,98954.59
2023-03-15T01:11:21.392Z,98962.59
2023-03-15T01:11:34.113Z,98954.59
2023-03-15T01:11:47.822Z,98964.22
2023-03-15T01:12:01.099Z,98963.41
2023-03-15T01:12:17.093Z,98954.81
2023-03-15T01:12:30.021Z,98945.19
2023-03-15T01:12:45.281Z,98956.44
2023-03-15T01:12:57.876Z,98974.28
2023-03-15T01:13:11.417Z,98973.47
2023-03-15T01:13:29.219Z,98955.84
2023-03-15T01:13:42.504Z,98949.50
2023-03-15T01:13:59.491Z,98947.84
2023-03-15T01:14:15.248Z,98968.34
2023-03-15T01:14:27.915Z,98972.66
2023-03-15T01:14:42.590Z,98951.75
2023-03-15T01:14:56.660Z,98967.53
2023-03-15T01:15:16.608Z,98954.22
2023-03-15T01:15:32.736Z,98955.03
2023-03-15T01:15:46.493Z,98954.22
2023-03-15T01:15:59.045Z,98968.34
2023-03-15T01:16:19.458Z,98953.41
2023-03-15T01:16:33.718Z,98953.41
2023-03-15T01:16:47.243Z,98958.50
2023-03-15T01:16:59.735Z,98962.41
2023-03-15T01:17:12.002Z,98974.91
2023-03-15T01:17:28.066Z,98960.56
2023-03-15T01:17:43.055Z,98957.09
2023-03-15T01:17:59.924Z,98960.19
2023-03-15T01:18:12.999Z,98967.97
2023-03-15T01:18:27.666Z,98967.72
2023-03-15T01:18:42.905Z,98957.31
2023-03-15T01:18:57.671Z,98961.81
2023-03-15T01:19:12.679Z,98956.47
2023-03-15T01:19:27.400Z,98955.66
2023-03-15T01:19:42.714Z,98970.84
2023-03-15T01:20:00.566Z,98953.81
2023-03-15T01:20:14.388Z,98962.84
2023-03-15T01:20:27.674Z,98954.66
2023-03-15T01:20:42.980Z,98965.31
2023-03-15T01:20:58.292Z,98958.94
2023-03-15T01:21:13.775Z,98939.69
2023-03-15T01:21:26.834Z,98957.53
2023-03-15T01:21:41.887Z,98966.31
2023-03-15T01:21:55.997Z,98958.97
2023-03-15T01:22:10.770Z,98934.34
2023-03-15T01:22:36.218Z,98954.03
2023-03-15T01:22:49.236Z,98955.06
2023-03-15T01:23:03.580Z,98951.38
2023-03-15T01:23:16.356Z,98941.53
2023-03-15T01:23:33.584Z,98947.06
2023-03-15T01:23:54.180Z,98954.03
2023-03-15T01:24:16.099Z,98956.72
2023-03-15T01:24:31.585Z,98953.19
2023-03-15T01:24:45.457Z,98938.47
2023-03-15T01:24:58.314Z,98949.72
2023-03-15T01:25:11.632Z,98967.75
2023-03-15T01:25:25.898Z,98978.41
2023-03-15T01:25:40.353Z,98949.34
2023-03-15T01:25:54.456Z,98931.53
2023-03-15T01:26:08.008Z,98949.97
2023-03-15T01:26:21.746Z,98958.16
2023-03-15T01:26:36.592Z,98962.66
2023-03-15T01:26:50.738Z,98945.84
2023-03-15T01:27:10.498Z,98956.50
2023-03-15T01:27:30.785Z,98959.16
2023-03-15T01:27:45.036Z,98949.75
2023-03-15T01:27:59.810Z,98958.34
2023-03-15T01:28:12.761Z,98946.28
2023-03-15T01:28:29.712Z,98949.75
2023-03-15T01:28:43.427Z,98949.56
2023-03-15T01:28:59.784Z,98953.25
2023-03-15T01:29:20.199Z,98968.19
2023-03-15T01:29:38.733Z,98952.41
2023-03-15T01:29:53.542Z,98950.59
2023-03-15T01:30:10.371Z,98956.75
2023-03-15T01:30:24.871Z,98962.25
2023-03-15T01:30:39.731Z,98956.94
2023-03-15T01:30:52.643Z,98950.81
2023-03-15T01:31:12.698Z,98945.28
2023-03-15T01:31:27.666Z,98955.09
2023-03-15T01:31:45.510Z,98961.44
2023-03-15T01:31:59.999Z,98951.63
2023-03-15T01:32:13.046Z,98964.13
2023-03-15T01:32:35.171Z,98946.28
2023-03-15T01:32:52.853Z,98960.41
2023-03-15T01:33:05.955Z,98973.13
2023-03-15T01:33:21.752Z,98959.00
2023-03-15T01:33:40.382Z,98953.66
2023-03-15T01:33:54.870Z,98951.81
2023-03-15T01:34:09.745Z,98952.25
2023-03-15T01:34:26.050Z,98955.94
2023-03-15T01:34:39.728Z,98970.44
2023-03-15T01:34:52.784Z,98958.63
2023-03-15T01:35:09.100Z,98951.22
2023-03-15T01:35:24.228Z,98948.78
2023-03-15T01:35:40.196Z,98967.19
2023-03-15T01:35:59.198Z,98971.69
2023-03-15T01:36:15.422Z,98974.16
2023-03-15T01:36:29.925Z,98986.66
2023-03-15T01:36:49.669Z,98967.19
2023-03-15T01:37:03.156Z,98954.50
2023-03-15T01:37:21.405Z,98967.41
2023-03-15T01:37:36.636Z,98960.25
2023-03-15T01:37:51.911Z,98954.91
2023-03-15T01:38:04.666Z,98947.97
2023-03-15T01:38:18.595Z,98962.91
2023-03-15T01:38:31.583Z,98963.09
2023-03-15T01:38:45.350Z,98962.09
2023-03-15T01:39:01.984Z,98957.78
2023-03-15T01:39:24.765Z,98952.44
2023-03-15T01:39:38.047Z,98957.78
2023-03-15T01:39:51.796Z,98968.44
2023-03-15T01:40:07.641Z,98964.13
2023-03-15T01:40:21.705Z,98973.75
2023-03-15T01:40:34.821Z,98952.69
2023-03-15T01:40:52.764Z,98972.94
2023-03-15T01:41:05.945Z,98963.53
2023-03-15T01:41:20.359Z,98953.28
2023-03-15T01:41:37.522Z,98953.50
2023-03-15T01:41:51.556Z,98956.97
2023-03-15T01:42:06.141Z,98948.16
2023-03-15T01:42:21.271Z,98948.16
2023-03-15T01:42:33.796Z,98952.28
2023-03-15T01:42:53.687Z,98947.34
2023-03-15T01:43:18.740Z,98960.66
2023-03-15T01:43:37.833Z,98959.00
2023-03-15T01:43:50.605Z,98957.41
2023-03-15T01:44:03.944Z,98951.25
2023-03-15T01:44:18.959Z,98959.25
2023-03-15T01:44:50.665Z,98970.91
2023-03-15T01:45:20.003Z,98974.63
2023-03-15T01:46:06.193Z,98957.00
2023-03-15T01:46:28.055Z,98958.03
2023-03-15T01:46:54.790Z,98950.84
2023-03-15T01:47:11.687Z,98953.72
2023-03-15T01:47:24.764Z,98948.19
2023-03-15T01:47:43.718Z,98948.19
2023-03-15T01:47:58.789Z,98953.72
2023-03-15T01:48:15.907Z,98955.56
2023-03-15T01:48:36.188Z,98958.22
2023-03-15T01:48:54.440Z,98948.63
2023-03-15T01:49:16.417Z,98960.09
2023-03-15T01:49:36.848Z,98943.28
2023-03-15T01:50:00.811Z,98945.56
2023-03-15T01:50:13.984Z,98948.81
2023-03-15T01:50:37.248Z,98956.81
2023-03-15T01:50:52.024Z,98952.53
2023-03-15T01:51:11.817Z,98952.13
2023-03-15T01:51:29.906Z,98974.84
2023-03-15T01:51:46.567Z,98949.03
2023-03-15T01:52:05.537Z,98950.06
2023-03-15T01:52:49.087Z,98954.97
2023-03-15T01:53:04.543Z,98930.66
2023-03-15T01:53:17.861Z,98946.16
2023-03-15T01:53:34.052Z,98964.19
2023-03-15T01:53:54.428Z,98940.22
2023-03-15T01:54:10.543Z,98947.59
2023-03-15T01:54:27.600Z,98933.47
2023-03-15T01:54:44.219Z,98957.25
2023-03-15T01:55:01.974Z,98936.97
2023-03-15T01:55:17.070Z,98965.22
2023-03-15T01:55:43.629Z,98958.25
2023-03-15T01:56:01.620Z,98957.44
2023-03-15T01:56:21.949Z,98959.28
2023-03-15T01:56:40.161Z,98939.00
2023-03-15T01:56:59.978Z,98960.09
2023-03-15T01:57:18.756Z,98947.00
2023-03-15T01:57:36.204Z,98954.78
2023-03-15T01:57:56.117Z,98961.72
2023-03-15T01:58:13.650Z,98959.06
2023-03-15T01:58:30.933Z,98936.34
2023-03-15T01:58:47.202Z,98949.28
2023-03-15T01:59:05.397Z,98957.63
2023-03-15T01:59:24.461Z,98950.69
2023-03-15T01:59:40.793Z,98957.03
2023-03-15T01:59:58.452Z,98986.31
2023-03-15T02:00:20.652Z,98951.72
2023-03-15T02:00:42.690Z,98950.09
2023-03-15T02:01:01.322Z,98933.50
2023-03-15T02:01:16.578Z,98956.66
2023-03-15T02:01:36.040Z,98956.41
2023-03-15T02:01:51.064Z,98946.81
2023-03-15T02:02:07.818Z,98934.53
2023-03-15T02:02:26.062Z,98955.22
2023-03-15T02:02:42.276Z,98982.47
2023-03-15T02:03:00.764Z,98975.47
2023-03-15T02:03:22.147Z,98956.03
2023-03-15T02:03:44.286Z,98956.84
2023-03-15T02:04:03.533Z,98963.22
2023-03-15T02:04:23.984Z,98950.72
2023-03-15T02:04:42.746Z,98949.91
2023-03-15T02:05:05.410Z,98952.56
2023-03-15T02:05:26.333Z,98955.22
2023-03-15T02:05:46.888Z,98958.09
2023-03-15T02:06:14.163Z,98945.59
2023-03-15T02:06:35.776Z,98940.28
2023-03-15T02:06:48.541Z,98954.38
2023-03-15T02:07:03.551Z,98944.59
2023-03-15T02:07:21.777Z,98947.66
2023-03-15T02:07:40.420Z,98958.91
2023-03-15T02:07:57.096Z,98953.56
2023-03-15T02:08:19.776Z,98955.22
2023-03-15T02:08:46.689Z,98938.41
2023-03-15T02:09:03.347Z,98946.84
2023-03-15T02:09:20.171Z,98941.31
2023-03-15T02:09:40.995Z,98938.03
2023-03-15T02:10:02.103Z,98937.59
2023-03-15T02:10:37.658Z,98950.09
2023-03-15T02:10:54.728Z,98943.97
2023-03-15T02:11:12.324Z,98940.28
2023-03-15T02:11:33.063Z,98963.41
2023-03-15T02:11:51.357Z,98949.28
2023-03-15T02:12:06.466Z,98958.91
2023-03-15T02:12:22.496Z,98946.63
2023-03-15T02:12:38.979Z,98948.69
2023-03-15T02:12:53.093Z,98939.66
2023-03-15T02:13:09.917Z,98948.47
2023-03-15T02:13:29.162Z,98939.03
2023-03-15T02:13:47.069Z,98948.47
2023-03-15T02:14:00.709Z,98941.50
2023-03-15T02:14:18.825Z,98952.34
2023-03-15T02:14:33.927Z,98959.34
2023-03-15T02:14:54.329Z,98941.50
2023-03-15T02:15:14.627Z,98938.84
2023-03-15T02:15:28.659Z,98944.00
2023-03-15T02:15:43.338Z,98951.34
2023-03-15T02:15:57.778Z,98940.91
2023-03-15T02:16:17.820Z,98944.38
2023-03-15T02:16:40.596Z,98952.59
2023-03-15T02:16:55.839Z,98951.53
2023-03-15T02:17:09.084Z,98947.88
2023-03-15T02:17:30.009Z,98942.75
2023-03-15T02:17:45.026Z,98943.78
2023-03-15T02:18:05.818Z,98959.75
2023-03-15T02:18:27.283Z,98970.41
2023-03-15T02:18:41.908Z,98950.94
2023-03-15T02:18:56.975Z,98944.81
2023-03-15T02:19:28.027Z,98945.59
2023-03-15T02:20:01.062Z,98958.91
2023-03-15T02:20:27.627Z,98952.97
2023-03-15T02:20:50.845Z,98940.53
2023-03-15T02:21:14.904Z,98946.84
2023-03-15T02:21:46.981Z,98963.84
2023-03-15T02:22:12.515Z,98941.16
2023-03-15T02:22:33.617Z,98945.44
2023-03-15T02:22:55.268Z,98949.94
2023-03-15T02:23:13.087Z,98943.56
2023-03-15T02:23:27.486Z,98952.41
2023-03-15T02:23:40.014Z,98941.16
2023-03-15T02:24:00.058Z,98940.72
2023-03-15T02:24:27.086Z,98937.66
2023-03-15T02:24:54.032Z,98949.94
2023-03-15T02:25:21.173Z,98941.16
2023-03-15T02:25:45.411Z,98949.13
2023-03-15T02:26:10.644Z,98944.81
2023-03-15T02:26:30.623Z,98947.69
2023-03-15T02:26:49.067Z,98965.28
2023-03-15T02:27:07.384Z,98963.63
2023-03-15T02:27:27.466Z,98950.34
2023-03-15T02:27:40.733Z,98953.00
2023-03-15T02:27:55.888Z,98946.88
2023-03-15T02:28:11.844Z,98947.69
2023-03-15T02:28:25.262Z,98945.00
2023-03-15T02:28:38.233Z,98955.66
2023-03-15T02:28:52.493Z,98951.56
2023-03-15T02:29:08.496Z,98950.56
2023-03-15T02:29:25.753Z,98940.31
2023-03-15T02:29:38.814Z,98951.56
2023-03-15T02:29:51.285Z,98961.22
2023-03-15T02:30:12.770Z,98935.84
2023-03-15T02:30:29.080Z,98951.38
2023-03-15T02:30:43.653Z,98956.09
2023-03-15T02:30:56.738Z,98940.56
2023-03-15T02:31:10.128Z,98996.63
2023-03-15T02:31:24.593Z,98952.41
2023-03-15T02:31:40.230Z,98995.81
2023-03-15T02:31:55.136Z,98944.44
2023-03-15T02:32:10.796Z,98951.56
2023-03-15T02:32:23.976Z,98941.16
2023-03-15T02:32:36.653Z,98959.78
2023-03-15T02:32:52.091Z,98956.28
2023-03-15T02:33:19.765Z,98954.47
2023-03-15T02:33:40.697Z,98941.16
2023-03-15T02:33:54.464Z,98949.53
2023-03-15T02:34:10.788Z,98965.31
2023-03-15T02:34:25.599Z,98945.25
2023-03-15T02:34:38.311Z,98946.88
2023-03-15T02:34:52.004Z,98956.72
2023-03-15T02:35:05.021Z,98948.94
2023-03-15T02:35:29.583Z,98953.25
2023-03-15T02:35:42.264Z,98961.22
2023-03-15T02:35:56.085Z,98977.19
2023-03-15T02:36:15.030Z,98946.28
2023-03-15T02:36:30.158Z,98970.22
2023-03-15T02:36:48.620Z,98948.34
2023-03-15T02:37:02.660Z,98955.28
2023-03-15T02:37:16.764Z,98945.69
2023-03-15T02:37:30.590Z,98959.56
2023-03-15T02:37:42.877Z,98962.22
2023-03-15T02:37:56.465Z,98951.19
2023-03-15T02:38:08.870Z,98956.31
2023-03-15T02:38:23.225Z,98960.81
2023-03-15T02:38:38.309Z,98956.53
2023-03-15T02:38:51.919Z,98973.31
2023-03-15T02:39:22.068Z,98965.31
2023-03-15T02:39:35.457Z,98961.66
2023-03-15T02:39:52.167Z,98972.28
2023-03-15T02:40:18.650Z,98961.66
2023-03-15T02:40:32.693Z,98964.31
2023-03-15T02:40:46.712Z,98997.03
2023-03-15T02:41:00.687Z,98979.22
2023-03-15T02:41:14.885Z,98974.72
2023-03-15T02:41:30.859Z,98977.59
2023-03-15T02:41:46.883Z,98968.59
2023-03-15T02:42:01.465Z,98978.19
2023-03-15T02:42:27.139Z,98969.81
2023-03-15T02:42:53.714Z,98970.63
2023-03-15T02:43:08.995Z,98973.31
2023-03-15T02:43:28.772Z,98971.69
2023-03-15T02:43:43.811Z,98967.38
2023-03-15T02:44:02.430Z,98958.56
2023-03-15T02:44:18.810Z,98970.03
2023-03-15T02:44:35.845Z,98978.00
2023-03-15T02:44:50.488Z,98966.56
2023-03-15T02:45:04.077Z,98962.28
2023-03-15T02:45:17.287Z,98968.19
2023-03-15T02:45:32.756Z,98974.34
2023-03-15T02:45:49.081Z,98966.34
2023-03-15T02:46:03.818Z,98965.50
2023-03-15T02:46:18.267Z,98963.91
2023-03-15T02:46:31.638Z,98968.41
2023-03-15T02:46:58.170Z,98978.00
2023-03-15T02:47:20.354Z,98970.25
2023-03-15T02:47:35.763Z,98974.53
2023-03-15T02:47:49.625Z,98960.41
2023-03-15T02:48:04.926Z,98968.19
2023-03-15T02:48:20.041Z,98969.41
2023-03-15T02:48:39.603Z,98974.53
2023-03-15T02:48:54.657Z,98978.00
2023-03-15T02:49:10.426Z,98971.06
2023-03-15T02:49:27.834Z,98978.81
2023-03-15T02:49:43.033Z,98967.38
2023-03-15T02:49:56.028Z,98974.34
2023-03-15T02:50:13.019Z,98977.19
2023-03-15T02:50:28.660Z,98969.22
2023-03-15T02:50:41.115Z,98973.72
2023-03-15T02:50:55.316Z,98971.25
2023-03-15T02:51:17.312Z,98976.38
2023-03-15T02:51:31.098Z,98968.41
2023-03-15T02:51:46.458Z,98966.56
2023-03-15T02:51:59.034Z,98987.84
2023-03-15T02:52:11.883Z,98974.53
2023-03-15T02:52:27.647Z,98974.72
2023-03-15T02:52:40.590Z,98962.28
2023-03-15T02:52:53.690Z,98969.22
2023-03-15T02:53:08.066Z,98989.69
2023-03-15T02:53:22.346Z,98972.91
2023-03-15T02:53:37.411Z,98976.38
2023-03-15T02:53:52.500Z,98974.72
2023-03-15T02:54:05.665Z,98985.56
2023-03-15T02:54:17.656Z,98978.44
2023-03-15T02:54:33.544Z,98973.09
2023-03-15T02:54:57.562Z,98972.06
2023-03-15T02:55:11.738Z,98970.84
2023-03-15T02:55:24.409Z,98980.25
2023-03-15T02:55:39.362Z,98973.91
2023-03-15T02:55:52.124Z,98977.59
2023-03-15T02:56:05.699Z,98983.75
2023-03-15T02:56:18.765Z,98977.38
2023-03-15T02:56:34.275Z,98979.25
2023-03-15T02:56:47.629Z,98975.78
2023-03-15T02:57:00.928Z,98971.25
2023-03-15T02:57:16.733Z,98977.38
2023-03-15T02:57:32.163Z,98972.06
2023-03-15T02:57:46.334Z,98976.59
2023-03-15T02:58:01.948Z,98978.59
2023-03-15T02:58:14.600Z,98977.38
2023-03-15T02:58:28.672Z,98989.06
2023-03-15T02:58:48.428Z,98991.72
2023-03-15T02:59:03.756Z,98987.22
2023-03-15T02:59:19.988Z,98976.59
2023-03-15T02:59:33.882Z,98976.59
2023-03-15T02:59:46.343Z,98974.09
2023-03-15T03:00:00.880Z,98962.63
2023-03-15T03:00:13.573Z,98971.44
2023-03-15T03:00:26.440Z,98966.53
2023-03-15T03:00:38.818Z,98979.25
2023-03-15T03:00:57.620Z,98976.59
2023-03-15T03:01:10.428Z,98982.72
2023-03-15T03:01:22.697Z,98975.78
2023-03-15T03:01:35.185Z,98976.59
2023-03-15T03:01:50.067Z,98988.22
2023-03-15T03:02:05.117Z,98975.78
2023-03-15T03:02:21.869Z,98977.38
2023-03-15T03:02:57.117Z,98970.44
2023-03-15T03:03:11.470Z,98980.06
2023-03-15T03:03:26.541Z,98981.91
2023-03-15T03:03:51.492Z,98980.88
2023-03-15T03:04:09.985Z,98983.56
2023-03-15T03:04:26.944Z,98973.09
2023-03-15T03:04:41.884Z,98980.06
2023-03-15T03:04:55.112Z,98972.28
2023-03-15T03:05:13.128Z,98971.25
2023-03-15T03:05:30.028Z,98978.44
2023-03-15T03:05:43.844Z,98989.88
2023-03-15T03:05:57.597Z,98971.44
2023-03-15T03:06:10.988Z,98981.91
2023-03-15T03:06:26.285Z,98987.22
2023-03-15T03:06:43.136Z,98985.56
2023-03-15T03:06:57.980Z,98976.59
2023-03-15T03:07:18.795Z,98972.06
2023-03-15T03:07:35.785Z,98979.25
2023-03-15T03:07:50.811Z,98981.91
2023-03-15T03:08:04.014Z,98977.38
2023-03-15T03:08:17.472Z,98981.09
2023-03-15T03:08:33.011Z,98968.59
2023-03-15T03:08:48.245Z,98984.72
2023-03-15T03:09:04.489Z,98972.28
2023-03-15T03:09:19.394Z,98984.72
2023-03-15T03:09:34.623Z,98978.44
2023-03-15T03:09:47.844Z,98969.00
2023-03-15T03:10:01.593Z,98971.44
2023-03-15T03:10:20.731Z,98974.72
2023-03-15T03:10:38.555Z,98972.91
2023-03-15T03:10:55.560Z,98975.78
2023-03-15T03:11:12.813Z,98972.28